Time;durP1;ratioP1;P1;durP2;ratioP2;P2;SDS_P1;SDS_P2;PMS_P1;PMS_P2;Temp;Humidity;BMP_temperature;BMP_pressure;BME280_temperature;BME280_humidity;BME280_pressure;Samples;Min_cycle;Max_cycle;Signal;HPM_P1;HPM_P2
2021/10/27 00:00:08;;;;;;;;;;;;;;;28.41;60.65;100798.47;5013112;28;65794;-39
2021/10/27 00:02:42;;;;;;;;;;;;;;;28.46;62.23;100798.72;5013892;28;70110;-39
2021/10/27 00:05:13;;;;;;;;;;;;;;;28.51;61.41;100801.63;5014581;28;66336;-38
2021/10/27 00:07:44;;;;;;;;;;;;;;;28.54;61.54;100799.56;4994846;28;69520;-38
2021/10/27 00:10:15;;;;;;;;;;;;;;;28.58;61.04;100817.81;5012382;28;66560;-38
2021/10/27 00:12:46;;;;;;;;;;;;;;;28.62;61.84;100812.84;4995108;28;69967;-39
2021/10/27 00:15:18;;;;;;;;;;;;;;;28.68;64.40;100812.03;5014291;28;66009;-38
2021/10/27 00:17:49;;;;;;;;;;;;;;;28.74;66.85;100816.59;5017337;28;70225;-39
2021/10/27 00:20:19;;;;;;;;;;;;;;;28.78;68.68;100815.16;5013721;28;66522;-37
2021/10/27 00:22:50;;;;;;;;;;;;;;;28.81;68.39;100822.81;5015932;28;70382;-39
2021/10/27 00:25:21;;;;;;;;;;;;;;;28.85;69.46;100829.47;5015709;28;67726;-38
2021/10/27 00:27:51;;;;;;;;;;;;;;;28.92;67.63;100832.19;5015548;28;69672;-39
2021/10/27 00:30:22;;;;;;;;;;;;;;;28.93;70.57;100837.34;5031736;28;65946;-39
2021/10/27 00:32:53;;;;;;;;;;;;;;;28.99;69.31;100842.97;5016577;28;70554;-39
2021/10/27 00:35:24;;;;;;;;;;;;;;;29.03;69.32;100842.38;5013941;28;66219;-38
2021/10/27 00:37:54;;;;;;;;;;;;;;;29.03;70.31;100836.09;5011109;28;70057;-39
2021/10/27 00:40:28;;;;;;;;;;;;;;;29.06;69.76;100854.59;5015066;28;65237;-39
2021/10/27 00:43:01;;;;;;;;;;;;;;;29.06;68.53;100852.75;5007880;28;69631;-38
2021/10/27 00:45:32;;;;;;;;;;;;;;;29.07;67.63;100861.69;5022453;28;66286;-38
2021/10/27 00:48:02;;;;;;;;;;;;;;;29.08;67.56;100855.25;5019945;28;69381;-39
2021/10/27 00:50:33;;;;;;;;;;;;;;;29.10;66.95;100869.38;5014762;28;66076;-38
2021/10/27 00:53:04;;;;;;;;;;;;;;;29.11;67.00;100874.59;4999589;28;70419;-39
2021/10/27 00:55:34;;;;;;;;;;;;;;;29.12;66.77;100876.22;5012962;28;66685;-39
2021/10/27 00:58:05;;;;;;;;;;;;;;;29.14;66.36;100886.81;5015884;28;70128;-38
2021/10/27 01:00:49;;;;;;;;;;;;;;;29.15;66.75;100883.09;5018058;28;66533;-38
2021/10/27 01:03:22;;;;;;;;;;;;;;;29.16;66.57;100880.16;5016111;28;69834;-38
2021/10/27 01:06:12;;;;;;;;;;;;;;;29.18;66.38;100885.38;4999667;28;65291;-38
2021/10/27 01:08:43;;;;;;;;;;;;;;;29.20;66.23;100875.19;5003254;28;70577;-38
2021/10/27 01:11:17;;;;;;;;;;;;;;;29.20;66.09;100871.63;5004590;28;66882;-38
2021/10/27 01:13:51;;;;;;;;;;;;;;;29.23;66.44;100884.75;5004471;28;70443;-38
2021/10/27 01:16:24;;;;;;;;;;;;;;;29.25;66.38;100882.66;5000840;28;66899;-39
2021/10/27 01:18:56;;;;;;;;;;;;;;;29.23;66.47;100877.47;5001522;28;70203;-38
2021/10/27 01:21:32;;;;;;;;;;;;;;;29.26;65.81;100878.94;4984464;28;65349;-38
2021/10/27 01:24:08;;;;;;;;;;;;;;;29.27;65.77;100886.81;5002285;28;71221;-39
2021/10/27 01:26:43;;;;;;;;;;;;;;;29.28;66.12;100883.09;5003558;28;66206;-38
2021/10/27 01:29:18;;;;;;;;;;;;;;;29.29;65.80;100884.75;5013999;28;70447;-38
2021/10/27 01:31:49;;;;;;;;;;;;;;;29.29;65.73;100886.63;5006491;28;67701;-38
2021/10/27 01:34:21;;;;;;;;;;;;;;;29.32;65.78;100878.91;5009972;28;70344;-38
2021/10/27 01:36:57;;;;;;;;;;;;;;;29.32;65.60;100881.63;5010302;28;66094;-38
2021/10/27 01:39:37;;;;;;;;;;;;;;;29.34;66.06;100886.81;5009102;28;70188;-38
2021/10/27 01:42:11;;;;;;;;;;;;;;;29.34;65.72;100884.94;4998155;28;66163;-38
2021/10/27 01:44:46;;;;;;;;;;;;;;;29.36;65.76;100893.69;5009401;28;70192;-39
2021/10/27 01:47:19;;;;;;;;;;;;;;;29.37;65.62;100900.72;5005393;28;66074;-38
2021/10/27 01:49:54;;;;;;;;;;;;;;;29.38;65.86;100896.97;5006215;28;70509;-39
2021/10/27 01:52:25;;;;;;;;;;;;;;;29.39;66.02;100895.97;5001417;28;65811;-39
2021/10/27 01:55:01;;;;;;;;;;;;;;;29.42;65.46;100899.25;5011554;28;70677;-39
2021/10/27 01:57:43;;;;;;;;;;;;;;;29.42;66.01;100893.84;5007610;28;65957;-39
2021/10/27 02:00:17;;;;;;;;;;;;;;;29.44;66.01;100892.59;5011052;28;69305;-38
2021/10/27 02:02:49;;;;;;;;;;;;;;;29.45;65.50;100899.69;5012978;28;65792;-39
2021/10/27 02:05:25;;;;;;;;;;;;;;;29.32;65.53;100868.09;5002207;28;69612;-39
2021/10/27 02:08:04;;;;;;;;;;;;;;;29.49;65.97;100895.50;5013794;28;66134;-39
2021/10/27 02:10:40;;;;;;;;;;;;;;;29.50;65.78;100899.88;5013806;28;70561;-39
2021/10/27 02:13:16;;;;;;;;;;;;;;;29.54;65.56;100916.50;5012039;28;66722;-39
2021/10/27 02:15:52;;;;;;;;;;;;;;;29.54;65.92;100920.03;4995091;28;69472;-39
2021/10/27 02:18:25;;;;;;;;;;;;;;;29.57;65.76;100918.78;5012758;28;65780;-39
2021/10/27 02:20:59;;;;;;;;;;;;;;;29.59;65.83;100922.13;5014328;28;69437;-39
2021/10/27 02:23:38;;;;;;;;;;;;;;;29.60;65.52;100919.19;5007840;28;66875;-39
2021/10/27 02:26:11;;;;;;;;;;;;;;;29.63;65.96;100923.38;5008593;28;69950;-39
2021/10/27 02:28:43;;;;;;;;;;;;;;;29.64;65.65;100919.63;5015493;28;65360;-39
2021/10/27 02:31:16;;;;;;;;;;;;;;;29.66;65.92;100920.25;4993315;28;69869;-40
2021/10/27 02:33:48;;;;;;;;;;;;;;;29.68;65.51;100914.66;5001711;28;66418;-40
2021/10/27 02:36:21;;;;;;;;;;;;;;;29.70;65.62;100918.81;5015378;28;68803;-39
2021/10/27 02:39:00;;;;;;;;;;;;;;;29.72;66.05;100924.81;5013753;28;67599;-38
2021/10/27 02:41:33;;;;;;;;;;;;;;;29.73;65.97;100921.09;5011867;28;70078;-38
2021/10/27 02:44:16;;;;;;;;;;;;;;;29.75;66.14;100921.69;5013047;28;66261;-38
2021/10/27 02:46:52;;;;;;;;;;;;;;;29.78;65.70;100915.88;5013343;28;69795;-38
2021/10/27 02:49:24;;;;;;;;;;;;;;;29.66;65.88;100895.09;4997221;28;66757;-38
2021/10/27 02:51:56;;;;;;;;;;;;;;;29.81;65.95;100920.84;5000633;28;70004;-38
2021/10/27 02:54:32;;;;;;;;;;;;;;;29.83;65.99;100913.34;5001824;28;65304;-39
2021/10/27 02:57:05;;;;;;;;;;;;;;;29.86;66.07;100911.25;5024315;28;70255;-39
2021/10/27 02:59:37;;;;;;;;;;;;;;;29.89;65.59;100916.25;5003741;28;66629;-38
2021/10/27 03:02:10;;;;;;;;;;;;;;;29.92;65.73;100923.94;5008583;28;69532;-38
2021/10/27 03:04:42;;;;;;;;;;;;;;;29.93;65.59;100912.09;5014797;28;67022;-38
2021/10/27 03:07:13;;;;;;;;;;;;;;;29.96;65.62;100914.34;5014416;28;70671;-38
2021/10/27 03:09:44;;;;;;;;;;;;;;;29.97;65.69;100906.00;5012039;28;65401;-38
2021/10/27 03:12:15;;;;;;;;;;;;;;;30.00;66.16;100902.06;5015348;28;69795;-38
2021/10/27 03:14:47;;;;;;;;;;;;;;;30.01;65.96;100904.56;5015771;28;66272;-38
2021/10/27 03:17:19;;;;;;;;;;;;;;;30.04;65.67;100898.72;5011791;28;69983;-38
2021/10/27 03:19:52;;;;;;;;;;;;;;;30.08;65.72;100893.69;5015626;28;66659;-38
2021/10/27 03:22:24;;;;;;;;;;;;;;;30.09;65.61;100900.78;5015241;28;70237;-39
2021/10/27 03:24:57;;;;;;;;;;;;;;;30.12;65.50;100896.81;4993273;28;65517;-38
2021/10/27 03:27:30;;;;;;;;;;;;;;;30.14;66.04;100892.84;5005578;28;69934;-38
2021/10/27 03:30:01;;;;;;;;;;;;;;;30.17;65.63;100892.44;5013803;28;66208;-39
2021/10/27 03:32:36;;;;;;;;;;;;;;;30.19;66.04;100890.31;5014519;28;70130;-39
2021/10/27 03:35:09;;;;;;;;;;;;;;;30.22;65.83;100889.91;5015496;28;65600;-38
2021/10/27 03:37:41;;;;;;;;;;;;;;;30.25;65.48;100894.06;5013490;28;70027;-39
2021/10/27 03:40:16;;;;;;;;;;;;;;;30.26;65.44;100885.75;5004414;28;66393;-38
2021/10/27 03:42:47;;;;;;;;;;;;;;;30.30;65.90;100883.44;5016036;28;69447;-39
2021/10/27 03:45:18;;;;;;;;;;;;;;;30.33;65.34;100868.66;5012843;28;66318;-39
2021/10/27 03:47:48;;;;;;;;;;;;;;;30.35;65.90;100858.44;5006259;28;70253;-38
2021/10/27 03:50:20;;;;;;;;;;;;;;;30.24;65.52;100839.13;5012854;28;65532;-39
2021/10/27 03:52:50;;;;;;;;;;;;;;;30.40;65.85;100848.63;5014605;28;70157;-39
2021/10/27 03:55:21;;;;;;;;;;;;;;;30.44;65.12;100846.28;5014499;28;65826;-39
2021/10/27 03:57:51;;;;;;;;;;;;;;;30.46;65.73;100836.09;5007566;28;70238;-38
2021/10/27 04:00:22;;;;;;;;;;;;;;;30.49;65.18;100832.94;5009177;28;67297;-40
2021/10/27 04:02:53;;;;;;;;;;;;;;;30.53;65.34;100831.44;5014140;28;70397;-39
2021/10/27 04:05:23;;;;;;;;;;;;;;;30.56;65.47;100824.75;5014031;28;66240;-38
2021/10/27 04:07:54;;;;;;;;;;;;;;;30.56;65.42;100828.28;5015159;28;69741;-39
2021/10/27 04:10:25;;;;;;;;;;;;;;;30.58;65.05;100820.78;5016025;28;66216;-39
2021/10/27 04:12:57;;;;;;;;;;;;;;;30.60;65.15;100816.00;5012105;28;70737;-39
2021/10/27 04:15:30;;;;;;;;;;;;;;;30.63;65.38;100820.13;5016152;28;65981;-40
2021/10/27 04:18:02;;;;;;;;;;;;;;;30.64;65.16;100817.19;5013182;28;70055;-39
2021/10/27 04:20:35;;;;;;;;;;;;;;;30.67;65.02;100818.63;5014115;28;66752;-39
2021/10/27 04:23:07;;;;;;;;;;;;;;;30.68;65.06;100817.59;5001679;28;71008;-40
2021/10/27 04:25:38;;;;;;;;;;;;;;;30.67;64.65;100811.38;4989668;28;66237;-38
2021/10/27 04:28:09;;;;;;;;;;;;;;;30.70;65.25;100810.06;5020392;28;70581;-38
2021/10/27 04:30:39;;;;;;;;;;;;;;;30.71;64.85;100807.16;5007419;28;65443;-38
2021/10/27 04:33:21;;;;;;;;;;;;;;;30.72;64.60;100797.97;5007500;28;69423;-39
2021/10/27 04:35:52;;;;;;;;;;;;;;;30.73;64.65;100802.34;4999343;28;66018;-38
2021/10/27 04:38:23;;;;;;;;;;;;;;;30.76;65.04;100797.53;5012469;28;69199;-38
2021/10/27 04:40:55;;;;;;;;;;;;;;;30.78;64.56;100792.72;5012197;28;66396;-39
2021/10/27 04:43:25;;;;;;;;;;;;;;;30.78;64.99;100790.84;5008481;28;70318;-38
2021/10/27 04:45:56;;;;;;;;;;;;;;;30.79;64.61;100799.81;5006970;28;66228;-39
2021/10/27 04:48:27;;;;;;;;;;;;;;;30.81;64.42;100792.31;5013828;28;71059;-38
2021/10/27 04:50:57;;;;;;;;;;;;;;;30.82;64.71;100785.84;5011996;28;66817;-38
2021/10/27 04:53:29;;;;;;;;;;;;;;;30.83;64.09;100782.09;5008775;28;70304;-38
2021/10/27 04:55:59;;;;;;;;;;;;;;;30.84;64.53;100773.75;5009004;28;65924;-38
2021/10/27 04:58:30;;;;;;;;;;;;;;;30.85;64.69;100774.56;5009547;28;70763;-38
2021/10/27 05:01:01;;;;;;;;;;;;;;;30.87;64.26;100761.63;5009477;28;66377;-39
2021/10/27 05:03:31;;;;;;;;;;;;;;;30.88;64.01;100768.72;5014522;28;69530;-38
2021/10/27 05:06:05;;;;;;;;;;;;;;;30.90;64.24;100766.63;5010227;28;66463;-39
2021/10/27 05:08:36;;;;;;;;;;;;;;;30.91;63.87;100765.56;5002884;28;70677;-39
2021/10/27 05:11:07;;;;;;;;;;;;;;;30.91;64.50;100758.25;5013478;28;67882;-39
2021/10/27 05:13:37;;;;;;;;;;;;;;;30.93;63.90;100749.91;5014641;28;69540;-39
2021/10/27 05:16:08;;;;;;;;;;;;;;;30.94;64.07;100765.94;5011908;28;66576;-39
2021/10/27 05:18:38;;;;;;;;;;;;;;;30.95;63.90;100758.63;4996553;28;69975;-39
2021/10/27 05:21:12;;;;;;;;;;;;;;;30.97;64.31;100761.94;5002268;28;65885;-39
2021/10/27 05:23:46;;;;;;;;;;;;;;;30.98;64.41;100758.22;5002564;28;69983;-39
2021/10/27 05:26:18;;;;;;;;;;;;;;;30.99;64.35;100762.56;5011491;28;66022;-39
2021/10/27 05:28:49;;;;;;;;;;;;;;;30.99;64.22;100754.44;5003020;28;69777;-39
2021/10/27 05:31:21;;;;;;;;;;;;;;;31.00;64.18;100761.50;4993845;28;66291;-39
2021/10/27 05:33:52;;;;;;;;;;;;;;;31.02;64.16;100755.88;5003592;28;70783;-39
2021/10/27 05:36:23;;;;;;;;;;;;;;;31.02;63.90;100753.97;5010881;28;65663;-39
2021/10/27 05:38:57;;;;;;;;;;;;;;;31.03;63.91;100744.78;5003152;28;70219;-38
2021/10/27 05:41:35;;;;;;;;;;;;;;;31.04;64.19;100746.47;5002217;28;66182;-39
2021/10/27 05:44:06;;;;;;;;;;;;;;;31.03;63.90;100749.38;5013352;28;69896;-39
2021/10/27 05:46:47;;;;;;;;;;;;;;;31.06;63.90;100744.34;5012525;28;65641;-39
2021/10/27 05:49:27;;;;;;;;;;;;;;;31.06;64.29;100738.91;5005541;28;69507;-37
2021/10/27 05:52:05;;;;;;;;;;;;;;;31.06;64.27;100736.22;5009889;28;65671;-38
2021/10/27 05:57:41;;;;;;;;;;;;;;;31.08;64.28;100731.41;5023663;28;67044;-39
2021/10/27 06:00:12;;;;;;;;;;;;;;;31.09;63.78;100724.94;5009836;28;69369;-39
2021/10/27 06:02:43;;;;;;;;;;;;;;;31.11;64.26;100725.53;5010970;28;66586;-39
2021/10/27 06:05:14;;;;;;;;;;;;;;;31.11;64.15;100720.13;5000540;28;70638;-42
2021/10/27 06:07:49;;;;;;;;;;;;;;;31.13;63.91;100712.59;5008247;28;66451;-38
2021/10/27 06:10:21;;;;;;;;;;;;;;;31.12;64.02;100710.94;5007016;28;70065;-38
2021/10/27 06:12:58;;;;;;;;;;;;;;;31.14;63.84;100719.66;5000170;28;66805;-38
2021/10/27 06:15:30;;;;;;;;;;;;;;;31.15;64.00;100710.50;5017286;28;71092;-38
2021/10/27 06:18:04;;;;;;;;;;;;;;;31.14;64.29;100708.81;5012575;28;66357;-38
2021/10/27 06:20:35;;;;;;;;;;;;;;;31.15;64.41;100705.06;5016443;28;69307;-38
2021/10/27 06:23:08;;;;;;;;;;;;;;;31.16;64.13;100704.00;4997563;28;66672;-38
2021/10/27 06:25:40;;;;;;;;;;;;;;;31.16;63.76;100706.72;5014751;28;70071;-39
2021/10/27 06:28:15;;;;;;;;;;;;;;;31.16;64.24;100695.88;5013903;28;66355;-38
2021/10/27 06:30:50;;;;;;;;;;;;;;;31.15;63.89;100693.41;5011784;28;71075;-40
2021/10/27 06:36:08;;;;;;;;;;;;;;;31.20;64.18;100695.44;5009953;28;70149;-39
2021/10/27 06:38:56;;;;;;;;;;;;;;;31.21;63.59;100691.69;5008581;28;66012;-39
2021/10/27 06:47:13;;;;;;;;;;;;;;;31.24;63.99;100688.50;5009750;28;69363;-39
2021/10/27 06:49:44;;;;;;;;;;;;;;;31.23;63.79;100684.97;5005660;28;66295;-38
2021/10/27 06:52:28;;;;;;;;;;;;;;;31.25;64.05;100682.03;5008528;28;70328;-40
2021/10/27 06:55:00;;;;;;;;;;;;;;;31.25;63.62;100688.28;5009455;28;66492;-40
2021/10/27 06:57:30;;;;;;;;;;;;;;;31.26;63.98;100678.25;5010129;28;70284;-41
2021/10/27 07:01:09;;;;;;;;;;;;;;;31.25;63.98;100666.59;5007602;28;66764;-38
2021/10/27 07:06:37;;;;;;;;;;;;;;;31.26;63.92;100662.84;5011534;28;66580;-39
2021/10/27 07:15:10;;;;;;;;;;;;;;;31.29;63.79;100656.97;5011135;28;70259;-38
2021/10/27 07:17:50;;;;;;;;;;;;;;;31.31;64.08;100651.31;5013815;28;65712;-39
2021/10/27 07:20:23;;;;;;;;;;;;;;;31.31;63.69;100654.00;5004783;28;69850;-38
2021/10/27 07:23:07;;;;;;;;;;;;;;;31.33;63.68;100651.91;5013818;28;65508;-39
2021/10/27 07:25:40;;;;;;;;;;;;;;;31.32;63.99;100651.09;5011121;28;69793;-38
2021/10/27 07:28:12;;;;;;;;;;;;;;;31.33;64.24;100654.63;5015816;28;66938;-39
2021/10/27 07:30:44;;;;;;;;;;;;;;;31.33;63.68;100651.91;5013255;28;69272;-38
2021/10/27 07:33:19;;;;;;;;;;;;;;;31.33;63.70;100647.31;5003577;28;66363;-38
2021/10/27 07:35:55;;;;;;;;;;;;;;;31.33;63.94;100651.91;5014204;28;69584;-38
2021/10/27 07:41:15;;;;;;;;;;;;;;;31.34;63.43;100642.72;4992086;28;69140;-38
2021/10/27 07:43:46;;;;;;;;;;;;;;;31.35;63.61;100634.34;5011219;28;66450;-39
2021/10/27 07:46:19;;;;;;;;;;;;;;;31.35;63.98;100636.25;5005256;28;70609;-38
2021/10/27 07:48:51;;;;;;;;;;;;;;;31.35;63.67;100638.97;5012390;28;65791;-38
2021/10/27 07:51:25;;;;;;;;;;;;;;;31.36;63.87;100635.22;5015106;28;70565;-38
2021/10/27 07:53:56;;;;;;;;;;;;;;;31.35;64.11;100634.34;5012780;28;66616;-39
2021/10/27 07:56:30;;;;;;;;;;;;;;;31.35;64.15;100637.06;5009640;28;70327;-38
2021/10/27 07:59:02;;;;;;;;;;;;;;;31.36;64.13;100627.91;5012979;28;66328;-38
2021/10/27 08:01:33;;;;;;;;;;;;;;;31.36;63.84;100621.66;5008159;28;70394;-38
2021/10/27 08:04:05;;;;;;;;;;;;;;;31.37;64.26;100631.44;5008175;28;67076;-38
2021/10/27 08:06:36;;;;;;;;;;;;;;;31.37;63.75;100623.31;5004454;28;69790;-39
2021/10/27 08:09:07;;;;;;;;;;;;;;;31.36;63.53;100617.06;5008501;28;66906;-38
2021/10/27 08:11:44;;;;;;;;;;;;;;;31.36;63.96;100619.78;5011475;28;70070;-39
2021/10/27 08:14:20;;;;;;;;;;;;;;;31.35;64.18;100615.38;5008017;28;66547;-37
2021/10/27 08:17:02;;;;;;;;;;;;;;;31.36;63.65;100621.66;5011270;28;70429;-38
2021/10/27 08:19:33;;;;;;;;;;;;;;;31.36;64.22;100617.06;5014556;28;67006;-38
2021/10/27 08:22:07;;;;;;;;;;;;;;;31.36;63.75;100618.94;5002893;28;69731;-38
2021/10/27 08:24:38;;;;;;;;;;;;;;;31.36;63.73;100613.53;5007835;28;66334;-38
2021/10/27 08:27:33;;;;;;;;;;;;;;;31.35;63.99;100618.09;5008290;28;69941;-38
2021/10/27 08:30:07;;;;;;;;;;;;;;;31.35;63.37;100617.28;5008335;28;66718;-38
2021/10/27 08:32:45;;;;;;;;;;;;;;;31.35;63.17;100628.13;5008420;28;70462;-38
2021/10/27 08:35:19;;;;;;;;;;;;;;;31.35;63.33;100628.13;5010840;28;67382;-38
2021/10/27 08:37:50;;;;;;;;;;;;;;;31.34;63.71;100626.44;5010326;28;70307;-38
2021/10/27 08:40:21;;;;;;;;;;;;;;;31.20;63.74;100612.25;5011364;28;66602;-38
2021/10/27 08:42:52;;;;;;;;;;;;;;;31.33;63.82;100641.06;5024686;28;69259;-38
2021/10/27 08:45:23;;;;;;;;;;;;;;;31.32;63.39;100644.84;5011837;28;66757;-38
2021/10/27 08:47:59;;;;;;;;;;;;;;;31.31;63.33;100648.59;5007605;28;70146;-39
2021/10/27 08:50:30;;;;;;;;;;;;;;;31.31;63.50;100657.53;5011693;28;67629;-39
2021/10/27 08:53:02;;;;;;;;;;;;;;;31.32;63.33;100663.81;5012356;28;70467;-38
2021/10/27 08:55:33;;;;;;;;;;;;;;;31.32;63.53;100666.53;5011840;28;66760;-38
2021/10/27 08:58:04;;;;;;;;;;;;;;;31.31;63.65;100671.09;5014001;28;70242;-38
2021/10/27 09:00:51;;;;;;;;;;;;;;;31.30;63.91;100672.16;5010924;28;66074;-38
2021/10/27 09:06:33;;;;;;;;;;;;;;;31.28;63.14;100662.59;5006836;28;66310;-38
2021/10/27 09:15:52;;;;;;;;;;;;;;;31.27;63.13;100660.94;5002195;28;70996;-38
2021/10/27 10:06:59;;;;;;;;;;;;;;;31.07;63.52;100672.88;5009234;28;69826;-38
2021/10/27 10:09:32;;;;;;;;;;;;;;;31.07;63.57;100664.75;5003227;28;66896;-38
2021/10/27 10:12:03;;;;;;;;;;;;;;;31.06;63.90;100673.91;4989413;28;70062;-38
2021/10/27 10:14:35;;;;;;;;;;;;;;;31.04;63.87;100676.03;5007204;28;66283;-38
2021/10/27 10:17:07;;;;;;;;;;;;;;;31.04;64.01;100676.03;5008425;28;69914;-39
2021/10/27 10:19:41;;;;;;;;;;;;;;;31.02;63.53;100675.41;5004304;28;65841;-38
2021/10/27 10:22:35;;;;;;;;;;;;;;;31.01;63.70;100676.50;5005291;28;70621;-38
2021/10/27 10:25:14;;;;;;;;;;;;;;;31.00;63.62;100685.66;5012186;28;66489;-38
2021/10/27 10:27:49;;;;;;;;;;;;;;;30.99;64.16;100689.41;5011266;28;70314;-38
2021/10/27 10:30:34;;;;;;;;;;;;;;;30.99;63.61;100689.41;5014732;28;65932;-39
2021/10/27 10:33:06;;;;;;;;;;;;;;;30.97;64.25;100686.09;5005063;28;69721;-38
2021/10/27 10:38:41;;;;;;;;;;;;;;;30.93;63.62;100685.72;5019062;28;69922;-38
2021/10/27 10:58:01;;;;;;;;;;;;;;;30.86;63.61;100700.41;5018228;28;65946;-38
2021/10/27 11:00:50;;;;;;;;;;;;;;;30.82;64.04;100700.03;5017617;28;69164;-38
2021/10/27 11:23:44;;;;;;;;;;;;;;;30.26;65.09;100734.22;5010904;28;69827;-38
2021/10/27 11:41:00;;;;;;;;;;;;;;;30.14;64.84;100757.56;5012618;28;70707;-37
2021/10/27 11:43:32;;;;;;;;;;;;;;;30.14;65.21;100760.28;5015267;28;66663;-39
2021/10/27 11:51:12;;;;;;;;;;;;;;;30.10;65.40;100778.00;5011098;28;70057;-37
2021/10/27 11:53:44;;;;;;;;;;;;;;;30.10;65.45;100783.41;5012710;28;65828;-39
2021/10/27 11:56:15;;;;;;;;;;;;;;;30.08;65.48;100785.50;5012520;28;70081;-37
2021/10/27 11:58:48;;;;;;;;;;;;;;;30.07;65.27;100783.84;5015775;28;66290;-39
2021/10/27 12:01:39;;;;;;;;;;;;;;;30.05;65.31;100783.22;5005427;28;69460;-39
2021/10/27 12:04:16;;;;;;;;;;;;;;;30.03;65.45;100788.03;5012786;28;66564;-38
2021/10/27 12:07:04;;;;;;;;;;;;;;;30.02;65.25;100791.78;5008098;28;70287;-38
2021/10/27 12:10:01;;;;;;;;;;;;;;;30.00;64.86;100796.56;5017389;28;65681;-39
2021/10/27 12:18:41;;;;;;;;;;;;;;;29.96;65.37;100803.47;5003664;28;70278;-38
2021/10/27 12:21:21;;;;;;;;;;;;;;;29.95;65.36;100804.50;5014033;28;65725;-38
2021/10/27 12:23:52;;;;;;;;;;;;;;;29.95;65.11;100807.19;5003591;28;70533;-38
2021/10/27 12:26:26;;;;;;;;;;;;;;;29.93;65.65;100812.84;5014763;28;66928;-38
2021/10/27 12:29:11;;;;;;;;;;;;;;;29.87;65.27;100815.59;5017122;28;68879;-38
2021/10/27 12:31:43;;;;;;;;;;;;;;;29.72;65.48;100813.97;5012769;28;67276;-39
2021/10/27 12:34:31;;;;;;;;;;;;;;;29.48;65.74;100822.78;5008302;28;71147;-39
2021/10/27 12:37:39;;;;;;;;;;;;;;;29.36;65.98;100828.81;4986214;28;65603;-38
2021/10/27 12:40:27;;;;;;;;;;;;;;;29.25;65.38;100834.84;5012229;28;70417;-38
2021/10/27 12:43:10;;;;;;;;;;;;;;;29.08;65.04;100839.03;5016438;28;58627;-37
2021/10/27 12:45:46;;;;;;;;;;;;;;;28.94;65.05;100844.41;5009130;28;69398;-37
2021/10/27 12:48:20;;;;;;;;;;;;;;;28.88;65.73;100853.34;5015633;28;65484;-37
2021/10/27 12:50:55;;;;;;;;;;;;;;;28.82;66.15;100862.28;5007837;28;70719;-38
2021/10/27 12:53:32;;;;;;;;;;;;;;;28.79;65.85;100873.50;5010008;28;65454;-38
2021/10/27 12:56:23;;;;;;;;;;;;;;;28.78;66.58;100890.72;5003619;28;70823;-38
2021/10/27 12:59:02;;;;;;;;;;;;;;;28.81;66.85;100893.03;5005486;28;65592;-38
2021/10/27 13:01:39;;;;;;;;;;;;;;;28.86;66.95;100898.63;5008342;28;69643;-39
2021/10/27 13:07:34;;;;;;;;;;;;;;;28.81;66.62;100909.22;4988690;28;70021;-38
2021/10/27 13:13:27;;;;;;;;;;;;;;;28.80;66.81;100934.53;4950357;28;69517;-38
2021/10/27 13:18:52;;;;;;;;;;;;;;;28.90;67.57;100942.25;5012134;28;70595;-39
2021/10/27 13:21:47;;;;;;;;;;;;;;;29.05;67.73;100942.09;5028082;28;66406;-36
2021/10/27 13:29:53;;;;;;;;;;;;;;;29.30;67.46;100945.81;5010102;28;69094;-35
2021/10/27 13:32:31;;;;;;;;;;;;;;;29.35;67.27;100954.16;5014693;28;66350;-35
2021/10/27 13:35:08;;;;;;;;;;;;;;;29.39;67.47;100949.16;5019528;28;69733;-35
2021/10/27 13:37:43;;;;;;;;;;;;;;;29.44;67.07;100946.66;5017588;28;66354;-35
2021/10/27 13:40:15;;;;;;;;;;;;;;;29.46;67.36;100954.56;5010443;28;69808;-36
2021/10/27 13:45:39;;;;;;;;;;;;;;;29.53;67.53;100955.38;5015717;28;69568;-39
2021/10/27 14:08:10;;;;;;;;;;;;;;;29.66;68.26;100977.03;5008991;28;70394;-37
2021/10/27 14:11:00;;;;;;;;;;;;;;;29.68;68.30;100987.63;5012245;28;66248;-35
2021/10/27 14:14:00;;;;;;;;;;;;;;;29.68;68.14;100985.75;5035847;28;69730;-36
2021/10/27 14:58:55;;;;;;;;;;;;;;;28.68;58.94;100995.56;5017268;28;69907;-36
2021/10/27 14:59:19;;;;;;;;;;;;;;;28.59;57.88;101007.59;5015938;28;70304;-36
2021/10/27 15:21:57;;;;;;;;;;;;;;;28.35;54.73;100995.41;5015287;28;71123;-38
2021/10/27 15:30:08;;;;;;;;;;;;;;;28.28;53.89;100990.00;5016296;28;65490;-37
2021/10/27 15:33:10;;;;;;;;;;;;;;;28.24;53.81;100977.91;5014068;28;69522;-37
2021/10/27 15:52:19;;;;;;;;;;;;;;;28.09;52.19;100979.94;5015820;28;66329;-36
2021/10/27 15:54:50;;;;;;;;;;;;;;;28.07;51.94;100978.25;5016461;28;69958;-37
2021/10/27 15:57:23;;;;;;;;;;;;;;;28.05;52.06;100974.94;5014012;28;65661;-36
2021/10/27 15:59:55;;;;;;;;;;;;;;;28.03;52.33;100977.00;5015540;28;71265;-36
2021/10/27 16:02:26;;;;;;;;;;;;;;;28.00;51.58;100972.00;5010386;28;65423;-37
2021/10/27 16:04:58;;;;;;;;;;;;;;;28.00;52.11;100966.59;5014737;28;69578;-39
2021/10/27 16:07:36;;;;;;;;;;;;;;;27.96;51.79;100967.19;5005595;28;65362;-38
2021/10/27 16:10:25;;;;;;;;;;;;;;;27.94;51.77;100959.28;5013596;28;70096;-38
2021/10/27 16:12:56;;;;;;;;;;;;;;;27.92;51.84;100953.28;5012625;28;65773;-37
2021/10/27 16:18:14;;;;;;;;;;;;;;;27.96;51.65;100954.53;5014759;28;67258;-36
2021/10/27 16:20:45;;;;;;;;;;;;;;;27.96;51.45;100941.06;5007756;28;70518;-37
2021/10/27 16:23:20;;;;;;;;;;;;;;;27.97;51.30;100941.88;5011125;28;66259;-37
2021/10/27 16:25:52;;;;;;;;;;;;;;;27.95;51.66;100942.09;5010823;28;70038;-37
2021/10/27 16:28:23;;;;;;;;;;;;;;;27.93;50.49;100938.75;5009091;28;66238;-37
2021/10/27 16:30:54;;;;;;;;;;;;;;;27.93;51.08;100938.75;5001122;28;70333;-37
2021/10/27 16:33:26;;;;;;;;;;;;;;;27.92;50.76;100934.41;5001450;28;66115;-37
2021/10/27 16:35:57;;;;;;;;;;;;;;;27.87;50.13;100928.78;5009862;28;70631;-37
2021/10/27 16:38:27;;;;;;;;;;;;;;;27.85;50.25;100925.44;5002933;28;65844;-36
2021/10/27 16:40:58;;;;;;;;;;;;;;;27.82;50.51;100925.84;5007401;28;69946;-36
2021/10/27 16:43:30;;;;;;;;;;;;;;;27.80;50.51;100938.69;5016866;28;65593;-36
2021/10/27 16:46:00;;;;;;;;;;;;;;;27.78;50.49;100930.78;5017679;28;69439;-37
2021/10/27 16:48:31;;;;;;;;;;;;;;;27.74;49.39;100923.28;5014452;28;65650;-36
2021/10/27 16:51:02;;;;;;;;;;;;;;;27.71;49.57;100923.66;5016746;28;70056;-35
2021/10/27 16:53:33;;;;;;;;;;;;;;;27.67;49.62;100922.41;5015958;28;65745;-37
2021/10/27 16:56:04;;;;;;;;;;;;;;;27.66;49.89;100926.13;5013438;28;70522;-36
2021/10/27 16:58:35;;;;;;;;;;;;;;;27.63;50.02;100928.16;5014654;28;66201;-36
2021/10/27 17:01:05;;;;;;;;;;;;;;;27.44;49.50;100899.22;5015427;28;70500;-36
2021/10/27 17:03:37;;;;;;;;;;;;;;;27.59;49.49;100921.53;5015915;28;66569;-36
2021/10/27 17:06:07;;;;;;;;;;;;;;;27.58;49.61;100919.88;5012653;28;70836;-36
2021/10/27 17:08:39;;;;;;;;;;;;;;;27.56;49.03;100913.84;5014559;28;66319;-36
2021/10/27 17:11:25;;;;;;;;;;;;;;;27.58;49.54;100911.78;5014279;28;69925;-37
2021/10/27 17:13:56;;;;;;;;;;;;;;;27.52;48.87;100909.84;5015400;28;66695;-36
2021/10/27 17:16:28;;;;;;;;;;;;;;;27.47;49.61;100906.94;5014470;28;70036;-37
2021/10/27 17:18:59;;;;;;;;;;;;;;;27.45;49.38;100903.59;5007718;28;65983;-37
2021/10/27 17:21:30;;;;;;;;;;;;;;;27.43;49.63;100894.06;5016354;28;70060;-37
2021/10/27 17:24:01;;;;;;;;;;;;;;;27.43;49.46;100900.25;5013524;28;66194;-35
2021/10/27 17:26:31;;;;;;;;;;;;;;;27.41;49.39;100896.94;5015227;28;70013;-35
2021/10/27 17:29:02;;;;;;;;;;;;;;;27.35;49.25;100897.72;5014563;28;66707;-36
2021/10/27 17:31:33;;;;;;;;;;;;;;;27.31;49.50;100885.69;5014317;28;70276;-36
2021/10/27 17:34:04;;;;;;;;;;;;;;;27.32;49.44;100888.16;5018809;28;65648;-36
2021/10/27 17:36:42;;;;;;;;;;;;;;;27.28;49.32;100881.53;5018460;28;70076;-37
2021/10/27 17:39:17;;;;;;;;;;;;;;;27.27;49.47;100879.84;5014935;28;66402;-37
2021/10/27 17:41:49;;;;;;;;;;;;;;;27.23;49.48;100877.75;5020923;28;69863;-37